sensor_id;sensor_type;location;lat;lon;timestamp;pressure;altitude;pressure_sealevel;temperature;humidity
16834;BME280;8533;48.426;10.868;2023-07-28T00:01:56;95526.03;;;15.60;100.00
16834;BME280;8533;48.426;10.868;2023-07-28T00:04:21;95484.97;;;15.40;100.00
16834;BME280;8533;48.426;10.868;2023-07-28T00:06:46;95563.84;;;15.83;100.00
16834;BME280;8533;48.426;10.868;2023-07-28T00:09:11;95496.38;;;15.36;100.00
16834;BME280;8533;48.426;10.868;2023-07-28T00:11:37;95558.44;;;15.74;100.00
16834;BME280;8533;48.426;10.868;2023-07-28T00:14:02;95324.97;;;14.07;100.00
16834;BME280;8533;48.426;10.868;2023-07-28T00:16:28;95485.31;;;15.20;100.00
16834;BME280;8533;48.426;10.868;2023-07-28T00:18:53;95542.28;;;15.48;100.00
16834;BME280;8533;48.426;10.868;2023-07-28T00:21:18;95411.72;;;14.64;100.00
16834;BME280;8533;48.426;10.868;2023-07-28T00:23:43;95546.25;;;15.32;100.00
16834;BME280;8533;48.426;10.868;2023-07-28T00:26:09;95478.25;;;15.02;100.00
16834;BME280;8533;48.426;10.868;2023-07-28T00:28:34;95566.75;;;15.35;100.00
16834;BME280;8533;48.426;10.868;2023-07-28T00:30:59;95536.00;;;15.31;100.00
16834;BME280;8533;48.426;10.868;2023-07-28T00:33:24;95446.91;;;14.68;100.00
16834;BME280;8533;48.426;10.868;2023-07-28T00:35:50;95497.72;;;14.87;100.00
16834;BME280;8533;48.426;10.868;2023-07-28T00:38:15;95465.72;;;14.61;100.00
16834;BME280;8533;48.426;10.868;2023-07-28T00:40:40;95496.41;;;14.84;100.00
16834;BME280;8533;48.426;10.868;2023-07-28T00:43:06;95502.84;;;14.78;100.00
16834;BME280;8533;48.426;10.868;2023-07-28T00:45:33;95539.69;;;14.97;100.00
16834;BME280;8533;48.426;10.868;2023-07-28T00:47:58;95543.25;;;14.87;100.00
16834;BME280;8533;48.426;10.868;2023-07-28T00:50:24;95568.38;;;14.99;100.00
16834;BME280;8533;48.426;10.868;2023-07-28T00:52:51;95557.91;;;14.94;100.00
16834;BME280;8533;48.426;10.868;2023-07-28T00:55:16;95516.22;;;14.44;100.00
16834;BME280;8533;48.426;10.868;2023-07-28T00:57:42;95556.97;;;14.84;100.00
16834;BME280;8533;48.426;10.868;2023-07-28T01:00:09;95520.16;;;14.47;100.00
16834;BME280;8533;48.426;10.868;2023-07-28T01:02:35;95561.91;;;14.72;100.00
16834;BME280;8533;48.426;10.868;2023-07-28T01:05:01;95519.16;;;14.43;100.00
16834;BME280;8533;48.426;10.868;2023-07-28T01:10:02;95456.06;;;13.95;100.00
16834;BME280;8533;48.426;10.868;2023-07-28T01:12:30;95521.56;;;14.39;100.00
16834;BME280;8533;48.426;10.868;2023-07-28T01:14:56;95436.81;;;13.81;100.00
16834;BME280;8533;48.426;10.868;2023-07-28T01:17:21;95410.38;;;13.72;100.00
16834;BME280;8533;48.426;10.868;2023-07-28T01:19:49;95526.97;;;14.48;100.00
16834;BME280;8533;48.426;10.868;2023-07-28T01:25:22;95542.50;;;14.49;100.00
16834;BME280;8533;48.426;10.868;2023-07-28T01:27:51;95555.38;;;14.51;100.00
16834;BME280;8533;48.426;10.868;2023-07-28T01:30:17;95433.13;;;13.82;100.00
16834;BME280;8533;48.426;10.868;2023-07-28T01:32:44;95557.06;;;14.61;100.00
16834;BME280;8533;48.426;10.868;2023-07-28T01:35:09;95527.06;;;14.38;100.00
16834;BME280;8533;48.426;10.868;2023-07-28T01:37:35;95458.78;;;13.90;100.00
16834;BME280;8533;48.426;10.868;2023-07-28T01:40:00;95430.69;;;13.67;100.00
16834;BME280;8533;48.426;10.868;2023-07-28T01:42:26;95524.53;;;14.33;100.00
16834;BME280;8533;48.426;10.868;2023-07-28T01:44:51;95479.63;;;14.05;100.00
16834;BME280;8533;48.426;10.868;2023-07-28T01:47:17;95531.03;;;14.40;100.00
16834;BME280;8533;48.426;10.868;2023-07-28T01:49:42;95520.09;;;14.28;100.00
16834;BME280;8533;48.426;10.868;2023-07-28T01:52:07;95549.53;;;14.54;100.00
16834;BME280;8533;48.426;10.868;2023-07-28T01:54:32;95489.59;;;14.08;100.00
16834;BME280;8533;48.426;10.868;2023-07-28T01:56:58;95446.25;;;13.82;100.00
16834;BME280;8533;48.426;10.868;2023-07-28T01:59:23;95533.97;;;14.34;100.00
16834;BME280;8533;48.426;10.868;2023-07-28T02:01:48;95516.25;;;14.21;100.00
16834;BME280;8533;48.426;10.868;2023-07-28T02:04:14;95556.00;;;14.43;100.00
16834;BME280;8533;48.426;10.868;2023-07-28T02:06:40;95550.25;;;14.36;100.00
16834;BME280;8533;48.426;10.868;2023-07-28T02:09:06;95291.16;;;12.54;100.00
16834;BME280;8533;48.426;10.868;2023-07-28T02:11:31;95437.38;;;13.54;100.00
16834;BME280;8533;48.426;10.868;2023-07-28T02:13:56;95511.00;;;13.78;100.00
16834;BME280;8533;48.426;10.868;2023-07-28T02:16:23;95555.00;;;14.15;100.00
16834;BME280;8533;48.426;10.868;2023-07-28T02:18:49;95517.19;;;13.87;100.00
16834;BME280;8533;48.426;10.868;2023-07-28T02:21:14;95449.88;;;13.44;100.00
16834;BME280;8533;48.426;10.868;2023-07-28T02:23:39;95442.59;;;13.35;100.00
16834;BME280;8533;48.426;10.868;2023-07-28T02:26:05;95504.28;;;13.67;100.00
16834;BME280;8533;48.426;10.868;2023-07-28T02:28:30;95470.94;;;13.38;100.00
16834;BME280;8533;48.426;10.868;2023-07-28T02:30:55;95466.97;;;13.41;100.00
16834;BME280;8533;48.426;10.868;2023-07-28T02:33:21;95457.91;;;13.28;100.00
16834;BME280;8533;48.426;10.868;2023-07-28T02:35:46;95501.72;;;13.62;100.00
16834;BME280;8533;48.426;10.868;2023-07-28T02:38:11;95371.50;;;12.74;100.00
16834;BME280;8533;48.426;10.868;2023-07-28T02:40:37;95414.91;;;12.90;100.00
16834;BME280;8533;48.426;10.868;2023-07-28T02:43:02;95509.63;;;13.57;100.00
16834;BME280;8533;48.426;10.868;2023-07-28T02:45:27;95460.81;;;13.27;100.00
16834;BME280;8533;48.426;10.868;2023-07-28T02:47:53;95532.16;;;13.63;100.00
16834;BME280;8533;48.426;10.868;2023-07-28T02:50:18;95469.22;;;13.29;100.00
16834;BME280;8533;48.426;10.868;2023-07-28T02:52:43;95481.25;;;13.30;100.00
16834;BME280;8533;48.426;10.868;2023-07-28T02:55:08;95431.63;;;12.99;100.00
16834;BME280;8533;48.426;10.868;2023-07-28T02:57:34;95378.41;;;12.65;100.00
16834;BME280;8533;48.426;10.868;2023-07-28T02:59:59;95505.03;;;13.44;100.00
16834;BME280;8533;48.426;10.868;2023-07-28T03:02:24;95437.66;;;13.00;100.00
16834;BME280;8533;48.426;10.868;2023-07-28T03:04:50;95489.44;;;13.28;100.00
16834;BME280;8533;48.426;10.868;2023-07-28T03:07:15;95395.75;;;12.61;100.00
16834;BME280;8533;48.426;10.868;2023-07-28T03:09:41;95412.25;;;12.67;100.00
16834;BME280;8533;48.426;10.868;2023-07-28T03:12:06;95368.38;;;12.43;100.00
16834;BME280;8533;48.426;10.868;2023-07-28T03:14:32;95553.50;;;13.56;100.00
16834;BME280;8533;48.426;10.868;2023-07-28T03:16:57;95548.53;;;13.55;100.00
16834;BME280;8533;48.426;10.868;2023-07-28T03:19:23;95376.75;;;12.45;100.00
16834;BME280;8533;48.426;10.868;2023-07-28T03:21:48;95408.56;;;12.68;100.00
16834;BME280;8533;48.426;10.868;2023-07-28T03:24:13;95455.84;;;12.91;100.00
16834;BME280;8533;48.426;10.868;2023-07-28T03:26:39;95447.72;;;12.59;100.00
16834;BME280;8533;48.426;10.868;2023-07-28T03:29:04;95426.47;;;12.60;100.00
16834;BME280;8533;48.426;10.868;2023-07-28T03:31:29;95466.88;;;12.93;100.00
16834;BME280;8533;48.426;10.868;2023-07-28T03:33:55;95570.63;;;13.54;100.00
16834;BME280;8533;48.426;10.868;2023-07-28T03:36:20;95508.78;;;13.04;100.00
16834;BME280;8533;48.426;10.868;2023-07-28T03:38:46;95578.00;;;13.52;100.00
16834;BME280;8533;48.426;10.868;2023-07-28T03:41:12;95446.16;;;12.58;100.00
16834;BME280;8533;48.426;10.868;2023-07-28T03:43:38;95475.59;;;12.89;100.00
16834;BME280;8533;48.426;10.868;2023-07-28T03:46:03;95556.00;;;13.43;100.00
16834;BME280;8533;48.426;10.868;2023-07-28T03:48:29;95457.81;;;12.81;100.00
16834;BME280;8533;48.426;10.868;2023-07-28T03:50:54;95466.88;;;12.93;100.00
16834;BME280;8533;48.426;10.868;2023-07-28T03:53:19;95576.94;;;13.53;100.00
16834;BME280;8533;48.426;10.868;2023-07-28T03:55:45;95535.66;;;13.29;100.00
16834;BME280;8533;48.426;10.868;2023-07-28T03:58:10;95475.06;;;12.87;100.00
16834;BME280;8533;48.426;10.868;2023-07-28T04:00:35;95281.34;;;11.68;100.00
16834;BME280;8533;48.426;10.868;2023-07-28T04:03:00;95476.25;;;12.99;100.00
16834;BME280;8533;48.426;10.868;2023-07-28T04:05:26;95393.63;;;12.34;100.00
16834;BME280;8533;48.426;10.868;2023-07-28T04:07:51;95571.25;;;13.46;100.00
16834;BME280;8533;48.426;10.868;2023-07-28T04:10:17;95421.94;;;12.66;100.00
16834;BME280;8533;48.426;10.868;2023-07-28T04:12:42;95540.78;;;13.45;100.00
16834;BME280;8533;48.426;10.868;2023-07-28T04:15:08;95554.91;;;13.20;100.00
16834;BME280;8533;48.426;10.868;2023-07-28T04:17:33;95473.97;;;12.93;100.00
16834;BME280;8533;48.426;10.868;2023-07-28T04:19:58;95589.00;;;13.83;100.00
16834;BME280;8533;48.426;10.868;2023-07-28T04:22:24;95515.66;;;13.33;100.00
16834;BME280;8533;48.426;10.868;2023-07-28T04:24:49;95520.81;;;13.44;100.00
16834;BME280;8533;48.426;10.868;2023-07-28T04:27:14;95539.56;;;13.61;100.00
16834;BME280;8533;48.426;10.868;2023-07-28T04:29:40;95565.63;;;13.81;100.00
16834;BME280;8533;48.426;10.868;2023-07-28T04:32:06;95545.47;;;13.71;100.00
16834;BME280;8533;48.426;10.868;2023-07-28T04:34:34;95558.69;;;13.90;100.00
16834;BME280;8533;48.426;10.868;2023-07-28T04:37:00;95497.00;;;13.59;100.00
16834;BME280;8533;48.426;10.868;2023-07-28T04:39:25;95541.34;;;13.89;100.00
16834;BME280;8533;48.426;10.868;2023-07-28T04:41:50;95597.97;;;14.29;100.00
16834;BME280;8533;48.426;10.868;2023-07-28T04:44:17;95600.88;;;14.51;100.00
16834;BME280;8533;48.426;10.868;2023-07-28T04:46:42;95566.53;;;14.38;100.00
16834;BME280;8533;48.426;10.868;2023-07-28T04:49:08;95582.41;;;14.57;100.00
16834;BME280;8533;48.426;10.868;2023-07-28T04:51:33;95527.97;;;14.28;100.00
16834;BME280;8533;48.426;10.868;2023-07-28T04:53:58;95563.97;;;14.57;100.00
16834;BME280;8533;48.426;10.868;2023-07-28T04:56:23;95529.97;;;14.41;100.00
16834;BME280;8533;48.426;10.868;2023-07-28T04:58:49;95575.00;;;14.77;100.00
16834;BME280;8533;48.426;10.868;2023-07-28T05:01:14;95445.09;;;13.93;100.00
16834;BME280;8533;48.426;10.868;2023-07-28T05:03:39;95592.72;;;14.91;100.00
16834;BME280;8533;48.426;10.868;2023-07-28T05:06:05;95534.50;;;14.55;100.00
16834;BME280;8533;48.426;10.868;2023-07-28T05:08:30;95531.38;;;14.71;100.00
16834;BME280;8533;48.426;10.868;2023-07-28T05:10:56;95583.09;;;15.18;100.00
16834;BME280;8533;48.426;10.868;2023-07-28T05:13:21;95523.25;;;14.68;100.00
16834;BME280;8533;48.426;10.868;2023-07-28T05:15:46;95519.19;;;14.94;100.00
16834;BME280;8533;48.426;10.868;2023-07-28T05:18:12;95580.81;;;15.44;100.00
16834;BME280;8533;48.426;10.868;2023-07-28T05:20:37;95494.97;;;14.92;100.00
16834;BME280;8533;48.426;10.868;2023-07-28T05:23:02;95531.16;;;15.19;100.00
16834;BME280;8533;48.426;10.868;2023-07-28T05:25:27;95607.31;;;15.72;100.00
16834;BME280;8533;48.426;10.868;2023-07-28T05:27:53;95523.97;;;15.24;100.00
16834;BME280;8533;48.426;10.868;2023-07-28T05:30:18;95423.81;;;14.65;100.00
16834;BME280;8533;48.426;10.868;2023-07-28T05:32:43;95525.66;;;15.34;100.00
16834;BME280;8533;48.426;10.868;2023-07-28T05:35:11;95578.25;;;15.58;100.00
16834;BME280;8533;48.426;10.868;2023-07-28T05:37:36;95414.03;;;14.33;100.00
16834;BME280;8533;48.426;10.868;2023-07-28T05:40:01;95569.50;;;15.62;100.00
16834;BME280;8533;48.426;10.868;2023-07-28T05:42:27;95573.50;;;15.74;100.00
16834;BME280;8533;48.426;10.868;2023-07-28T05:44:52;95593.06;;;15.86;100.00
16834;BME280;8533;48.426;10.868;2023-07-28T05:47:20;95546.53;;;15.63;100.00
16834;BME280;8533;48.426;10.868;2023-07-28T05:49:45;95584.47;;;15.94;100.00
16834;BME280;8533;48.426;10.868;2023-07-28T05:52:11;95474.09;;;15.28;100.00
16834;BME280;8533;48.426;10.868;2023-07-28T05:54:36;95537.16;;;15.98;100.00
16834;BME280;8533;48.426;10.868;2023-07-28T05:57:01;95446.91;;;15.46;100.00
16834;BME280;8533;48.426;10.868;2023-07-28T05:59:27;95465.59;;;15.63;100.00
16834;BME280;8533;48.426;10.868;2023-07-28T06:01:53;95568.44;;;16.46;100.00
16834;BME280;8533;48.426;10.868;2023-07-28T06:04:18;95472.41;;;15.92;100.00
16834;BME280;8533;48.426;10.868;2023-07-28T06:06:43;95415.13;;;15.56;100.00
16834;BME280;8533;48.426;10.868;2023-07-28T06:09:09;95530.50;;;16.41;100.00
16834;BME280;8533;48.426;10.868;2023-07-28T06:11:34;95625.03;;;17.16;100.00
16834;BME280;8533;48.426;10.868;2023-07-28T06:13:59;95618.41;;;17.28;100.00
16834;BME280;8533;48.426;10.868;2023-07-28T06:16:24;95427.59;;;16.14;100.00
16834;BME280;8533;48.426;10.868;2023-07-28T06:18:50;95512.78;;;16.92;100.00
16834;BME280;8533;48.426;10.868;2023-07-28T06:21:15;95516.13;;;17.06;100.00
16834;BME280;8533;48.426;10.868;2023-07-28T06:23:40;95584.81;;;17.64;100.00
16834;BME280;8533;48.426;10.868;2023-07-28T06:26:06;95609.81;;;18.20;100.00
16834;BME280;8533;48.426;10.868;2023-07-28T06:28:31;95504.19;;;17.62;100.00
16834;BME280;8533;48.426;10.868;2023-07-28T06:30:57;95554.19;;;18.11;100.00
16834;BME280;8533;48.426;10.868;2023-07-28T06:33:28;95528.69;;;18.15;100.00
16834;BME280;8533;48.426;10.868;2023-07-28T06:35:53;95538.50;;;18.41;100.00
16834;BME280;8533;48.426;10.868;2023-07-28T06:38:18;95517.81;;;18.43;100.00
16834;BME280;8533;48.426;10.868;2023-07-28T06:40:44;95538.53;;;18.49;100.00
16834;BME280;8533;48.426;10.868;2023-07-28T06:43:09;95627.66;;;19.11;100.00
16834;BME280;8533;48.426;10.868;2023-07-28T06:45:34;95632.63;;;18.95;100.00
16834;BME280;8533;48.426;10.868;2023-07-28T06:48:00;95572.72;;;18.68;100.00
16834;BME280;8533;48.426;10.868;2023-07-28T06:50:25;95491.59;;;18.07;100.00
16834;BME280;8533;48.426;10.868;2023-07-28T06:52:50;95591.78;;;19.04;100.00
16834;BME280;8533;48.426;10.868;2023-07-28T06:55:17;95535.16;;;18.75;100.00
16834;BME280;8533;48.426;10.868;2023-07-28T06:57:42;95551.69;;;19.23;100.00
16834;BME280;8533;48.426;10.868;2023-07-28T07:00:08;95442.75;;;18.56;100.00
16834;BME280;8533;48.426;10.868;2023-07-28T07:02:36;95431.66;;;18.54;100.00
16834;BME280;8533;48.426;10.868;2023-07-28T07:05:02;95455.06;;;18.78;100.00
16834;BME280;8533;48.426;10.868;2023-07-28T07:07:27;95479.50;;;18.92;100.00
16834;BME280;8533;48.426;10.868;2023-07-28T07:09:53;95657.75;;;19.92;100.00
16834;BME280;8533;48.426;10.868;2023-07-28T07:12:18;95556.06;;;19.36;100.00
16834;BME280;8533;48.426;10.868;2023-07-28T07:14:45;95481.06;;;18.93;100.00
16834;BME280;8533;48.426;10.868;2023-07-28T07:17:10;95603.13;;;19.74;100.00
16834;BME280;8533;48.426;10.868;2023-07-28T07:19:38;95643.34;;;20.10;100.00
16834;BME280;8533;48.426;10.868;2023-07-28T07:22:04;95558.84;;;19.49;100.00
16834;BME280;8533;48.426;10.868;2023-07-28T07:24:30;95585.94;;;19.80;100.00
16834;BME280;8533;48.426;10.868;2023-07-28T07:26:55;95646.72;;;20.19;100.00
16834;BME280;8533;48.426;10.868;2023-07-28T07:29:20;95609.63;;;20.02;100.00
16834;BME280;8533;48.426;10.868;2023-07-28T07:31:46;95496.63;;;19.29;100.00
16834;BME280;8533;48.426;10.868;2023-07-28T07:34:11;95541.81;;;19.58;100.00
16834;BME280;8533;48.426;10.868;2023-07-28T07:36:36;95493.50;;;19.27;100.00
16834;BME280;8533;48.426;10.868;2023-07-28T07:39:02;95600.25;;;19.96;100.00
16834;BME280;8533;48.426;10.868;2023-07-28T07:41:30;95662.31;;;20.30;100.00
16834;BME280;8533;48.426;10.868;2023-07-28T07:43:56;95619.47;;;20.02;100.00
16834;BME280;8533;48.426;10.868;2023-07-28T07:46:22;95630.50;;;20.12;100.00
16834;BME280;8533;48.426;10.868;2023-07-28T07:48:48;95534.97;;;19.57;100.00
16834;BME280;8533;48.426;10.868;2023-07-28T07:51:14;95586.19;;;19.96;100.00
16834;BME280;8533;48.426;10.868;2023-07-28T07:53:40;95468.84;;;19.26;100.00
16834;BME280;8533;48.426;10.868;2023-07-28T07:56:06;95663.31;;;20.63;100.00
16834;BME280;8533;48.426;10.868;2023-07-28T07:58:32;95676.84;;;20.79;100.00
16834;BME280;8533;48.426;10.868;2023-07-28T08:00:57;95524.22;;;19.92;100.00
16834;BME280;8533;48.426;10.868;2023-07-28T08:03:23;95472.53;;;19.60;100.00
16834;BME280;8533;48.426;10.868;2023-07-28T08:05:49;95512.19;;;19.94;100.00
16834;BME280;8533;48.426;10.868;2023-07-28T08:08:15;95549.94;;;20.08;100.00
16834;BME280;8533;48.426;10.868;2023-07-28T08:10:42;95678.63;;;20.95;100.00
16834;BME280;8533;48.426;10.868;2023-07-28T08:13:08;95642.69;;;20.89;100.00
16834;BME280;8533;48.426;10.868;2023-07-28T08:15:33;95623.06;;;20.73;100.00
16834;BME280;8533;48.426;10.868;2023-07-28T08:17:58;95661.41;;;20.93;100.00
16834;BME280;8533;48.426;10.868;2023-07-28T08:20:24;95631.88;;;20.65;100.00
16834;BME280;8533;48.426;10.868;2023-07-28T08:22:49;95579.66;;;20.31;100.00
16834;BME280;8533;48.426;10.868;2023-07-28T08:25:14;95532.56;;;20.11;100.00
16834;BME280;8533;48.426;10.868;2023-07-28T08:27:40;95477.03;;;19.68;100.00
16834;BME280;8533;48.426;10.868;2023-07-28T08:30:06;95640.81;;;20.90;100.00
16834;BME280;8533;48.426;10.868;2023-07-28T08:32:31;95352.72;;;19.02;100.00
16834;BME280;8533;48.426;10.868;2023-07-28T08:34:57;95605.00;;;20.87;100.00
16834;BME280;8533;48.426;10.868;2023-07-28T08:37:22;95534.22;;;20.53;100.00
16834;BME280;8533;48.426;10.868;2023-07-28T08:39:47;95636.41;;;21.15;100.00
16834;BME280;8533;48.426;10.868;2023-07-28T08:42:13;95574.72;;;20.80;100.00
16834;BME280;8533;48.426;10.868;2023-07-28T08:44:38;95531.03;;;20.60;100.00
16834;BME280;8533;48.426;10.868;2023-07-28T08:47:04;95686.88;;;21.53;100.00
16834;BME280;8533;48.426;10.868;2023-07-28T08:49:30;95446.06;;;20.31;100.00
16834;BME280;8533;48.426;10.868;2023-07-28T08:52:02;95644.38;;;21.77;100.00
16834;BME280;8533;48.426;10.868;2023-07-28T08:54:28;95675.31;;;21.82;99.16
16834;BME280;8533;48.426;10.868;2023-07-28T08:56:53;95572.34;;;21.41;95.54
16834;BME280;8533;48.426;10.868;2023-07-28T08:59:26;95525.44;;;21.24;94.00
16834;BME280;8533;48.426;10.868;2023-07-28T09:01:57;95535.63;;;21.34;92.92
16834;BME280;8533;48.426;10.868;2023-07-28T09:04:27;95668.28;;;22.55;91.72
16834;BME280;8533;48.426;10.868;2023-07-28T09:06:52;95406.03;;;20.56;90.02
16834;BME280;8533;48.426;10.868;2023-07-28T09:09:21;95576.88;;;22.06;88.65
16834;BME280;8533;48.426;10.868;2023-07-28T09:11:54;95532.03;;;21.51;88.83
16834;BME280;8533;48.426;10.868;2023-07-28T09:14:20;95597.44;;;22.18;85.57
16834;BME280;8533;48.426;10.868;2023-07-28T09:16:47;95682.75;;;22.66;85.83
16834;BME280;8533;48.426;10.868;2023-07-28T09:19:12;95569.56;;;21.70;87.61
16834;BME280;8533;48.426;10.868;2023-07-28T09:21:40;95689.53;;;22.64;87.09
16834;BME280;8533;48.426;10.868;2023-07-28T09:24:06;95486.63;;;21.23;87.50
16834;BME280;8533;48.426;10.868;2023-07-28T09:26:46;95593.31;;;21.75;87.09
16834;BME280;8533;48.426;10.868;2023-07-28T09:29:16;95681.50;;;22.39;90.03
16834;BME280;8533;48.426;10.868;2023-07-28T09:31:43;95535.22;;;21.44;90.12
16834;BME280;8533;48.426;10.868;2023-07-28T09:34:09;95609.91;;;21.93;91.22
16834;BME280;8533;48.426;10.868;2023-07-28T09:36:35;95577.16;;;21.80;90.98
16834;BME280;8533;48.426;10.868;2023-07-28T09:39:02;95458.69;;;21.08;89.46
16834;BME280;8533;48.426;10.868;2023-07-28T09:41:29;95644.75;;;22.45;89.45
16834;BME280;8533;48.426;10.868;2023-07-28T09:43:55;95650.28;;;22.40;88.06
16834;BME280;8533;48.426;10.868;2023-07-28T09:46:22;95679.31;;;22.66;87.22
16834;BME280;8533;48.426;10.868;2023-07-28T09:48:52;95472.38;;;21.52;87.25
16834;BME280;8533;48.426;10.868;2023-07-28T09:51:21;95543.53;;;21.88;87.09
16834;BME280;8533;48.426;10.868;2023-07-28T09:53:55;95676.78;;;22.81;89.10
16834;BME280;8533;48.426;10.868;2023-07-28T09:56:27;95504.66;;;21.62;89.32
16834;BME280;8533;48.426;10.868;2023-07-28T09:58:54;95485.81;;;21.67;87.11
16834;BME280;8533;48.426;10.868;2023-07-28T10:01:21;95620.69;;;22.78;88.18
16834;BME280;8533;48.426;10.868;2023-07-28T10:03:50;95674.38;;;23.41;84.92
16834;BME280;8533;48.426;10.868;2023-07-28T10:06:16;95592.75;;;22.88;86.41
16834;BME280;8533;48.426;10.868;2023-07-28T10:08:42;95632.63;;;23.08;86.99
16834;BME280;8533;48.426;10.868;2023-07-28T10:11:09;95552.91;;;22.18;85.33
16834;BME280;8533;48.426;10.868;2023-07-28T10:13:41;95437.88;;;21.43;84.30
16834;BME280;8533;48.426;10.868;2023-07-28T10:16:07;95566.22;;;22.06;82.55
16834;BME280;8533;48.426;10.868;2023-07-28T10:18:34;95646.41;;;22.50;81.83
16834;BME280;8533;48.426;10.868;2023-07-28T10:21:05;95685.41;;;22.54;84.63
16834;BME280;8533;48.426;10.868;2023-07-28T10:23:33;95489.66;;;21.13;84.83
16834;BME280;8533;48.426;10.868;2023-07-28T10:26:00;95627.28;;;21.78;86.29
16834;BME280;8533;48.426;10.868;2023-07-28T10:28:37;95426.97;;;20.58;87.61
16834;BME280;8533;48.426;10.868;2023-07-28T10:31:08;95684.34;;;22.10;89.25
16834;BME280;8533;48.426;10.868;2023-07-28T10:33:40;95707.41;;;22.06;95.94
16834;BME280;8533;48.426;10.868;2023-07-28T10:38:42;95609.31;;;21.21;97.70
16834;BME280;8533;48.426;10.868;2023-07-28T10:41:16;95522.66;;;20.58;95.74
16834;BME280;8533;48.426;10.868;2023-07-28T10:43:43;95685.69;;;21.62;96.78
16834;BME280;8533;48.426;10.868;2023-07-28T10:46:10;95609.56;;;21.08;95.76
16834;BME280;8533;48.426;10.868;2023-07-28T10:48:37;95717.75;;;21.87;97.87
16834;BME280;8533;48.426;10.868;2023-07-28T10:51:05;95496.91;;;20.50;95.62
16834;BME280;8533;48.426;10.868;2023-07-28T10:53:31;95672.19;;;21.47;98.13
16834;BME280;8533;48.426;10.868;2023-07-28T10:55:57;95713.22;;;21.87;98.68
16834;BME280;8533;48.426;10.868;2023-07-28T10:58:23;95704.25;;;21.50;100.00
16834;BME280;8533;48.426;10.868;2023-07-28T11:00:50;95440.72;;;20.10;99.47
16834;BME280;8533;48.426;10.868;2023-07-28T11:03:16;95744.59;;;22.35;97.18
16834;BME280;8533;48.426;10.868;2023-07-28T11:05:41;95659.94;;;22.20;95.51
16834;BME280;8533;48.426;10.868;2023-07-28T11:08:07;95712.00;;;23.11;92.17
16834;BME280;8533;48.426;10.868;2023-07-28T11:10:33;95555.34;;;22.23;90.00
16834;BME280;8533;48.426;10.868;2023-07-28T11:13:00;95505.25;;;21.80;92.92
16834;BME280;8533;48.426;10.868;2023-07-28T11:15:26;95677.97;;;22.72;96.60
16834;BME280;8533;48.426;10.868;2023-07-28T11:17:52;95714.44;;;23.04;94.70
16834;BME280;8533;48.426;10.868;2023-07-28T11:22:53;95497.44;;;21.51;94.95
16834;BME280;8533;48.426;10.868;2023-07-28T11:25:18;95628.66;;;22.54;92.41
16834;BME280;8533;48.426;10.868;2023-07-28T11:27:44;95618.00;;;22.54;93.33
16834;BME280;8533;48.426;10.868;2023-07-28T11:30:15;95587.31;;;22.48;90.79
16834;BME280;8533;48.426;10.868;2023-07-28T11:32:43;95735.97;;;23.48;88.46
16834;BME280;8533;48.426;10.868;2023-07-28T11:35:11;95719.72;;;23.93;85.08
16834;BME280;8533;48.426;10.868;2023-07-28T11:37:39;95727.63;;;24.29;83.57
16834;BME280;8533;48.426;10.868;2023-07-28T11:40:06;95564.81;;;23.37;79.08
16834;BME280;8533;48.426;10.868;2023-07-28T11:42:34;95690.38;;;24.09;84.83
16834;BME280;8533;48.426;10.868;2023-07-28T11:45:04;95757.81;;;24.18;81.76
16834;BME280;8533;48.426;10.868;2023-07-28T11:47:31;95719.34;;;24.50;77.86
16834;BME280;8533;48.426;10.868;2023-07-28T11:49:57;95724.81;;;24.69;78.26
16834;BME280;8533;48.426;10.868;2023-07-28T11:52:32;95679.78;;;24.71;78.42
16834;BME280;8533;48.426;10.868;2023-07-28T11:54:59;95665.63;;;24.12;79.33
16834;BME280;8533;48.426;10.868;2023-07-28T11:57:29;95732.31;;;24.48;80.65
16834;BME280;8533;48.426;10.868;2023-07-28T11:59:59;95629.44;;;23.43;80.73
16834;BME280;8533;48.426;10.868;2023-07-28T12:02:26;95486.72;;;22.32;86.30
16834;BME280;8533;48.426;10.868;2023-07-28T12:04:52;95698.09;;;23.82;85.51
16834;BME280;8533;48.426;10.868;2023-07-28T12:07:20;95598.56;;;23.57;87.19
16834;BME280;8533;48.426;10.868;2023-07-28T12:12:21;95516.75;;;23.37;77.80
16834;BME280;8533;48.426;10.868;2023-07-28T12:14:47;95730.44;;;24.80;77.87
16834;BME280;8533;48.426;10.868;2023-07-28T12:17:14;95714.97;;;24.73;78.66
16834;BME280;8533;48.426;10.868;2023-07-28T12:20:04;95598.78;;;24.24;77.86
16834;BME280;8533;48.426;10.868;2023-07-28T12:22:45;95677.50;;;25.05;74.90
16834;BME280;8533;48.426;10.868;2023-07-28T12:25:11;95707.78;;;25.98;72.89
16834;BME280;8533;48.426;10.868;2023-07-28T12:27:37;95526.88;;;25.08;69.74
16834;BME280;8533;48.426;10.868;2023-07-28T12:30:03;95707.22;;;26.08;67.94
16834;BME280;8533;48.426;10.868;2023-07-28T12:32:29;95424.19;;;23.88;68.50
16834;BME280;8533;48.426;10.868;2023-07-28T12:34:54;95514.03;;;24.79;70.17
16834;BME280;8533;48.426;10.868;2023-07-28T12:37:20;95700.59;;;25.83;71.76
16834;BME280;8533;48.426;10.868;2023-07-28T12:39:46;95553.31;;;24.75;72.28
16834;BME280;8533;48.426;10.868;2023-07-28T12:42:12;95681.91;;;25.13;74.49
16834;BME280;8533;48.426;10.868;2023-07-28T12:44:38;95712.06;;;24.94;78.76
16834;BME280;8533;48.426;10.868;2023-07-28T12:47:04;95662.75;;;24.80;75.25
16834;BME280;8533;48.426;10.868;2023-07-28T12:49:30;95611.75;;;24.57;75.50
16834;BME280;8533;48.426;10.868;2023-07-28T12:51:57;95672.34;;;24.96;72.78
16834;BME280;8533;48.426;10.868;2023-07-28T12:54:23;95627.72;;;24.69;72.87
16834;BME280;8533;48.426;10.868;2023-07-28T12:56:49;95491.25;;;23.24;78.09
16834;BME280;8533;48.426;10.868;2023-07-28T12:59:15;95562.25;;;23.84;76.02
16834;BME280;8533;48.426;10.868;2023-07-28T13:01:40;95592.00;;;23.55;80.69